ROMMA est une association bénévole à but non lucratif. Votre soutien est indispensable : ADHERER à ROMMA ou FAIRE un DON

Voiron - (38, Isère)

Voironnais (300 m)   Longitude: 05° 35' E   Latitude: 45° 23' N Station partenaire n°109
 

Détail journalier du     <<     >>

Température Precipitation Humidité Pression Vent Dir Rafale Dir. rafale Ensol.
Heure (°C) (mm) (%) (hPa) (km/h) (km/h) (min)
01:00 19.807410201NNO5NNO0
02:00 18.907610201NNO5NNO0
03:00 17.8080102002NNO0
04:00 17.108110201NNO5NNO0
05:00 16.5083101902NNO0
06:00 15.9084102003NNO0
07:00 16.408310201NNO5NNO0
08:00 18.907610202E5NNO60
09:00 19.707310203S10SSO60
10:00 21.606710194S11SSE60
11:00 22.706610195S11SSO60
12:00 24.405910195SE13SSE60
13:00 25.705810186S18S60
14:00 27.305210186S18S60
15:00 28.205010176SSE18S60
16:00 29.104510166S18S60
17:00 29.603910167SSO16SSE60
18:00 29.6039101610SSO19SSO60
19:00 29.303810169SSO19SSO60
20:00 28.903910166SO18S60
21:00 27.204510163SSO11SSO30
22:00 24.205610172NNO6NNO0
23:00 23.305310181NNO5NNO0
minuit 22.405410183SSE8SSE0

Graphique du 02-06-2019

 

Serveur OMMA